Time;durP1;ratioP1;P1;durP2;ratioP2;P2;SDS_P1;SDS_P2;PMS_P1;PMS_P2;Temp;Humidity;BMP_temperature;BMP_pressure;BME280_temperature;BME280_humidity;BME280_pressure;Samples;Min_cycle;Max_cycle;Signal;HPM_P1;HPM_P2
2022/02/05 00:00:34;;;;;;;4.32;2.05;;;8.10;69.60;;;;;;5091434;28;20543;-68
2022/02/05 00:03:13;;;;;;;3.55;1.95;;;8.20;69.50;;;;;;5088959;28;20182;-68
2022/02/05 00:05:46;;;;;;;3.22;1.83;;;8.20;69.40;;;;;;5081098;28;20185;-73
2022/02/05 00:08:26;;;;;;;2.83;1.70;;;8.20;69.30;;;;;;5090876;28;20192;-70
2022/02/05 00:38:49;;;;;;;2.78;1.75;;;8.20;68.80;;;;;;5053683;28;20185;-68
2022/02/05 00:41:17;;;;;;;3.70;2.30;;;8.30;68.60;;;;;;5092015;28;20272;-68
2022/02/05 00:43:52;;;;;;;2.65;1.85;;;8.20;68.50;;;;;;5091666;28;20189;-68
2022/02/05 00:46:20;;;;;;;2.90;1.90;;;8.30;68.70;;;;;;5092149;28;20227;-68
2022/02/05 00:48:48;;;;;;;2.90;1.70;;;8.30;68.60;;;;;;5091508;28;20189;-68
2022/02/05 00:51:19;;;;;;;2.85;1.50;;;8.30;68.80;;;;;;5091988;28;20200;-68
2022/02/05 00:53:57;;;;;;;2.90;1.65;;;8.30;68.50;;;;;;5091183;28;20185;-68
2022/02/05 00:56:37;;;;;;;3.88;1.98;;;8.30;68.60;;;;;;5092102;28;20220;-68
2022/02/05 00:59:05;;;;;;;3.40;2.38;;;8.20;68.70;;;;;;5091423;28;20276;-68
2022/02/05 01:01:32;;;;;;;4.03;1.48;;;8.30;68.60;;;;;;5091959;28;20185;-68
2022/02/05 01:03:59;;;;;;;5.47;1.80;;;8.30;68.50;;;;;;5091420;28;20294;-68
2022/02/05 01:06:26;;;;;;;5.53;1.85;;;8.30;68.60;;;;;;5091758;28;20193;-68
2022/02/05 01:08:53;;;;;;;2.40;1.45;;;8.30;68.60;;;;;;5091233;28;20247;-68
2022/02/05 01:11:20;;;;;;;3.38;1.75;;;8.40;68.90;;;;;;5091949;28;20626;-68
2022/02/05 01:13:47;;;;;;;2.35;1.48;;;8.30;69.20;;;;;;5091246;28;20251;-68
2022/02/05 01:16:22;;;;;;;2.58;1.60;;;8.30;69.40;;;;;;5094769;28;20279;-68
2022/02/05 01:18:50;;;;;;;2.38;1.30;;;8.20;69.60;;;;;;5095089;28;20208;-68
2022/02/05 01:21:26;;;;;;;2.60;1.30;;;8.20;69.40;;;;;;5095680;28;20666;-67
2022/02/05 01:23:58;;;;;;;2.80;1.70;;;8.20;69.50;;;;;;5095272;28;20188;-68
2022/02/05 01:26:30;;;;;;;2.70;1.50;;;;;;;;;;5095894;28;20193;-68
2022/02/05 01:29:02;;;;;;;2.70;1.30;;;;;;;;;;5095004;28;20209;-68
2022/02/05 01:31:37;;;;;;;3.20;1.50;;;;;;;;;;5095674;28;20509;-68
2022/02/05 01:34:13;;;;;;;1.90;0.90;;;;;;;;;;5094721;28;20271;-68
2022/02/05 01:53:30;;;;;;;1.70;0.80;;;;;;;;;;5088784;28;20204;-68
2022/02/05 01:56:16;;;;;;;1.60;0.80;;;;;;;;;;5094903;28;20230;-68
2022/02/05 01:58:57;;;;;;;1.70;0.90;;;;;;;;;;5094336;28;20189;-68
2022/02/05 02:07:10;;;;;;;1.98;0.93;;;;;;;;;;5095098;28;20334;-68
2022/02/05 02:09:54;;;;;;;1.60;0.70;;;8.30;69.60;;;;;;5094051;28;20189;-68
2022/02/05 02:12:24;;;;;;;2.10;0.80;;;6.60;71.10;;;;;;5095123;28;20189;-68
2022/02/05 02:14:58;;;;;;;1.55;0.90;;;6.60;71.50;;;;;;5074436;28;20549;-68
2022/02/05 02:18:06;;;;;;;3.28;0.80;;;6.50;71.30;;;;;;5092743;28;20216;-68
2022/02/05 02:20:48;;;;;;;1.63;0.80;;;;;;;;;;5074246;28;20186;-68
2022/02/05 02:23:31;;;;;;;1.95;0.80;;;;;;;;;;5077008;28;20640;-67
2022/02/05 02:26:05;;;;;;;2.55;1.10;;;;;;;;;;5094103;28;20177;-68
2022/02/05 02:28:44;;;;;;;1.60;0.70;;;6.50;72.40;;;;;;5093931;28;20185;-68
2022/02/05 02:31:16;;;;;;;2.13;0.90;;;6.40;72.60;;;;;;5094605;28;20200;-67
2022/02/05 02:33:48;;;;;;;1.83;0.93;;;6.40;72.40;;;;;;5094033;28;20220;-68
2022/02/05 02:36:24;;;;;;;3.17;1.35;;;6.50;72.60;;;;;;5094291;28;20193;-67
2022/02/05 02:38:57;;;;;;;2.30;1.10;;;6.50;72.60;;;;;;5093633;28;20192;-68
2022/02/05 02:41:28;;;;;;;2.00;0.90;;;6.50;72.40;;;;;;5094400;28;20615;-68
2022/02/05 02:43:56;;;;;;;2.38;0.85;;;;;;;;;;5093698;28;20208;-68
2022/02/05 02:46:23;;;;;;;2.15;0.95;;;6.40;72.80;;;;;;5094296;28;20205;-68
2022/02/05 02:48:50;;;;;;;1.90;0.90;;;;;;;;;;5093824;28;20577;-68
2022/02/05 02:56:55;;;;;;;1.83;0.70;;;6.40;72.50;;;;;;5094256;28;20219;-67
2022/02/05 02:59:28;;;;;;;1.70;0.80;;;6.30;73.50;;;;;;5093463;28;20181;-68
2022/02/05 03:02:07;;;;;;;1.50;0.80;;;6.30;73.40;;;;;;5093957;28;20276;-68
2022/02/05 03:04:34;;;;;;;2.13;0.90;;;6.20;73.30;;;;;;5093145;28;20200;-67
2022/02/05 03:07:01;;;;;;;2.50;1.10;;;6.30;73.70;;;;;;5093921;28;20189;-68
2022/02/05 03:09:30;;;;;;;2.65;0.80;;;6.30;73.50;;;;;;5093280;28;20181;-68
2022/02/05 03:11:57;;;;;;;1.90;0.90;;;6.20;73.00;;;;;;5092967;28;20181;-68
2022/02/05 03:14:24;;;;;;;2.45;0.90;;;6.00;74.10;;;;;;5093725;28;20191;-68
2022/02/05 03:16:56;;;;;;;2.22;1.30;;;6.00;74.10;;;;;;5092903;28;20213;-68
2022/02/05 03:19:23;;;;;;;2.30;1.00;;;6.00;73.90;;;;;;5093428;28;20238;-68
2022/02/05 03:21:50;;;;;;;2.47;1.00;;;6.00;73.70;;;;;;5092946;28;20254;-69
2022/02/05 03:24:17;;;;;;;2.72;0.82;;;6.00;73.50;;;;;;5093763;28;20707;-68
2022/02/05 03:26:46;;;;;;;3.85;1.05;;;5.90;74.20;;;;;;5092756;28;20636;-68
2022/02/05 03:29:13;;;;;;;1.90;1.10;;;5.80;74.60;;;;;;5093416;28;20206;-68
2022/02/05 03:31:41;;;;;;;1.98;0.93;;;5.70;75.40;;;;;;5091926;28;20289;-68
2022/02/05 03:34:08;;;;;;;1.83;1.00;;;5.70;76.30;;;;;;5093137;28;20647;-68
2022/02/05 03:36:39;;;;;;;1.80;1.08;;;5.60;76.40;;;;;;5092271;28;20612;-68
2022/02/05 03:39:07;;;;;;;2.47;1.35;;;5.50;77.20;;;;;;5091691;28;20213;-68
2022/02/05 03:41:34;;;;;;;1.88;1.00;;;5.50;77.70;;;;;;5093039;28;20195;-67
2022/02/05 03:44:03;;;;;;;1.90;1.35;;;5.50;78.20;;;;;;5093101;28;20712;-67
2022/02/05 03:46:30;;;;;;;2.20;1.17;;;;;;;;;;5092508;28;20189;-68
2022/02/05 03:48:58;;;;;;;2.95;1.33;;;;;;;;;;5092971;28;20643;-67
2022/02/05 03:51:25;;;;;;;2.28;1.30;;;;;;;;;;5092370;28;20554;-68
2022/02/05 03:53:52;;;;;;;3.00;1.35;;;;;;;;;;5093198;28;20254;-68
2022/02/05 03:56:20;;;;;;;2.40;1.20;;;;;;;;;;5092293;28;20235;-67
2022/02/05 03:58:47;;;;;;;2.13;1.30;;;;;;;;;;5093288;28;20248;-67
2022/02/05 04:01:16;;;;;;;2.70;1.40;;;;;;;;;;5092566;28;20184;-67
2022/02/05 04:03:43;;;;;;;2.20;1.30;;;;;;;;;;5092921;28;20211;-68
2022/02/05 04:06:10;;;;;;;2.00;1.35;;;;;;;;;;5091815;28;20185;-67
2022/02/05 04:08:38;;;;;;;2.05;1.17;;;;;;;;;;5092866;28;20225;-67
2022/02/05 04:11:09;;;;;;;2.20;1.40;;;;;;;;;;5091363;28;20192;-67
2022/02/05 04:16:24;;;;;;;1.80;0.95;;;;;;;;;;5092235;28;20273;-68
2022/02/05 04:18:53;;;;;;;1.70;1.10;;;;;;;;;;5092651;28;20224;-68
2022/02/05 04:21:21;;;;;;;2.05;1.30;;;5.30;78.70;;;;;;5092230;28;20596;-68
2022/02/05 04:23:49;;;;;;;1.75;1.08;;;4.90;83.40;;;;;;5092788;28;20190;-67
2022/02/05 04:26:17;;;;;;;4.63;1.40;;;4.90;83.20;;;;;;5091477;28;20181;-67
2022/02/05 04:28:44;;;;;;;4.68;2.30;;;5.00;83.10;;;;;;5092772;28;20189;-67
2022/02/05 04:31:11;;;;;;;4.28;2.20;;;5.00;82.70;;;;;;5092039;28;20188;-68
2022/02/05 04:33:40;;;;;;;2.40;1.38;;;5.00;83.10;;;;;;5092042;28;20212;-68
2022/02/05 04:36:09;;;;;;;2.67;1.52;;;5.10;82.10;;;;;;5092661;28;20238;-67
2022/02/05 04:38:38;;;;;;;2.38;1.65;;;5.10;82.20;;;;;;5091910;28;20213;-67
2022/02/05 04:41:10;;;;;;;3.78;1.83;;;5.10;82.30;;;;;;5092506;28;20193;-68
2022/02/05 04:43:57;;;;;;;3.75;2.00;;;5.10;81.40;;;;;;5091782;28;20173;-68
2022/02/05 04:46:55;;;;;;;3.50;1.75;;;5.10;81.20;;;;;;5092376;28;20193;-68
2022/02/05 04:52:28;;;;;;;2.47;1.60;;;5.20;80.30;;;;;;5096647;28;20185;-68
2022/02/05 04:55:09;;;;;;;2.30;1.20;;;5.30;79.80;;;;;;5094614;28;20705;-68
2022/02/05 04:57:52;;;;;;;2.17;1.50;;;5.30;79.50;;;;;;5075733;28;20213;-67
2022/02/05 05:00:32;;;;;;;2.33;1.50;;;5.40;78.60;;;;;;5076466;28;20554;-67
2022/02/05 05:03:21;;;;;;;3.05;1.30;;;5.40;78.10;;;;;;5094930;28;20627;-67
2022/02/05 05:06:04;;;;;;;1.92;1.20;;;5.40;77.50;;;;;;5096040;28;20537;-70
2022/02/05 05:08:41;;;;;;;3.40;1.38;;;5.40;76.70;;;;;;5096779;28;20533;-67
2022/02/05 05:19:31;;;;;;;2.05;1.10;;;5.40;74.20;;;;;;5056796;28;20228;-68
2022/02/05 05:22:01;;;;;;;2.88;1.58;;;5.40;73.70;;;;;;5095988;28;20632;-67
2022/02/05 05:24:28;;;;;;;3.20;1.33;;;5.40;73.00;;;;;;5096462;28;20211;-68
2022/02/05 05:26:56;;;;;;;3.80;1.55;;;5.40;72.90;;;;;;5095476;28;20692;-67
2022/02/05 05:29:24;;;;;;;2.50;1.42;;;5.40;72.80;;;;;;5096477;28;20193;-68
2022/02/05 05:31:51;;;;;;;2.88;1.75;;;5.40;72.80;;;;;;5095158;28;20227;-68
2022/02/05 05:34:18;;;;;;;2.83;1.75;;;5.40;73.10;;;;;;5096385;28;20192;-67
2022/02/05 05:36:45;;;;;;;2.45;1.63;;;5.40;73.10;;;;;;5095495;28;20290;-67
2022/02/05 05:39:14;;;;;;;5.63;1.90;;;5.40;72.20;;;;;;5095578;28;20258;-68
2022/02/05 05:41:42;;;;;;;2.13;1.30;;;5.50;72.40;;;;;;5095039;28;20185;-67
2022/02/05 05:44:36;;;;;;;2.92;1.50;;;5.40;72.10;;;;;;5095941;28;20275;-67
2022/02/05 05:47:17;;;;;;;3.85;2.10;;;5.40;72.60;;;;;;5094981;28;20181;-67
2022/02/05 05:49:58;;;;;;;3.05;1.98;;;5.50;72.80;;;;;;5095840;28;20730;-68
2022/02/05 05:52:25;;;;;;;3.22;2.33;;;5.50;72.80;;;;;;5095115;28;20193;-68
2022/02/05 05:54:53;;;;;;;3.25;1.90;;;5.40;72.80;;;;;;5095878;28;20193;-68
2022/02/05 05:57:21;;;;;;;2.42;1.40;;;5.40;72.70;;;;;;5095056;28;20272;-67
2022/02/05 05:59:48;;;;;;;5.05;1.60;;;5.40;72.30;;;;;;5095712;28;20193;-67
2022/02/05 06:02:15;;;;;;;2.55;1.40;;;5.40;72.10;;;;;;5094227;28;20238;-68
2022/02/05 06:04:42;;;;;;;6.22;1.95;;;5.40;72.30;;;;;;5095686;28;20587;-67
2022/02/05 06:07:09;;;;;;;3.78;1.70;;;5.40;72.80;;;;;;5094393;28;20246;-68
2022/02/05 06:09:40;;;;;;;2.72;1.50;;;5.40;72.90;;;;;;5095456;28;20189;-73
2022/02/05 06:12:10;;;;;;;2.30;1.33;;;5.30;72.50;;;;;;5094348;28;20208;-67
2022/02/05 06:14:38;;;;;;;2.60;1.88;;;5.30;72.20;;;;;;5092220;28;20193;-68
2022/02/05 06:17:08;;;;;;;3.00;1.85;;;5.30;72.10;;;;;;5094631;28;20199;-68
2022/02/05 06:19:37;;;;;;;3.15;1.80;;;5.20;72.40;;;;;;5094375;28;20218;-68
2022/02/05 06:22:05;;;;;;;4.25;2.28;;;5.20;72.60;;;;;;5094771;28;20185;-67
2022/02/05 06:24:32;;;;;;;2.70;1.80;;;5.20;72.80;;;;;;5094552;28;20185;-67
2022/02/05 06:26:59;;;;;;;2.92;1.70;;;5.20;72.70;;;;;;5094545;28;20276;-67
2022/02/05 06:29:28;;;;;;;4.90;2.80;;;5.20;72.80;;;;;;5094134;28;20551;-68
2022/02/05 06:31:55;;;;;;;2.72;1.90;;;5.20;73.10;;;;;;5094847;28;20271;-67
2022/02/05 06:34:22;;;;;;;2.95;1.90;;;5.20;73.10;;;;;;5094240;28;20287;-67
2022/02/05 06:36:49;;;;;;;3.80;2.20;;;5.10;73.00;;;;;;5093237;28;20515;-68
2022/02/05 06:39:17;;;;;;;4.05;1.85;;;5.10;73.00;;;;;;5094562;28;20216;-67
2022/02/05 06:41:46;;;;;;;2.70;2.00;;;5.10;73.30;;;;;;5093858;28;20670;-67
2022/02/05 06:44:13;;;;;;;2.33;1.73;;;5.10;73.30;;;;;;5094363;28;20200;-67
2022/02/05 06:46:43;;;;;;;2.58;2.00;;;5.10;73.20;;;;;;5093977;28;20264;-68
2022/02/05 06:49:10;;;;;;;3.10;1.90;;;5.00;73.00;;;;;;5094322;28;20188;-68
2022/02/05 06:51:37;;;;;;;2.70;2.10;;;5.00;73.00;;;;;;5093746;28;20185;-67
2022/02/05 06:54:05;;;;;;;4.15;1.95;;;5.00;73.10;;;;;;5094110;28;20234;-67
2022/02/05 06:56:32;;;;;;;4.03;2.30;;;5.00;72.90;;;;;;5094090;28;20188;-67
2022/02/05 06:58:59;;;;;;;4.22;2.65;;;5.00;72.90;;;;;;5093854;28;20213;-68
2022/02/05 07:01:27;;;;;;;4.25;2.20;;;5.00;72.50;;;;;;5093842;28;20189;-68
2022/02/05 07:03:55;;;;;;;4.80;2.85;;;5.00;72.20;;;;;;5094160;28;20280;-67
2022/02/05 07:06:22;;;;;;;3.33;2.75;;;5.00;72.00;;;;;;5093896;28;20656;-68
2022/02/05 07:08:50;;;;;;;3.67;2.90;;;5.00;71.40;;;;;;5093980;28;20193;-68
2022/02/05 07:11:17;;;;;;;5.70;4.15;;;5.00;71.10;;;;;;5093631;28;20313;-68
2022/02/05 07:13:44;;;;;;;9.10;5.43;;;5.00;70.90;;;;;;5092715;28;20559;-67
2022/02/05 07:16:15;;;;;;;7.50;4.45;;;4.90;70.70;;;;;;5093963;28;20250;-67
2022/02/05 07:18:54;;;;;;;6.78;3.75;;;4.90;70.80;;;;;;5093110;28;20256;-68
2022/02/05 07:21:31;;;;;;;5.43;3.63;;;4.90;71.10;;;;;;5093556;28;20744;-67
2022/02/05 07:29:23;;;;;;;3.90;3.20;;;5.10;71.30;;;;;;5093429;28;20192;-69
2022/02/05 07:31:53;;;;;;;4.32;3.40;;;5.00;71.10;;;;;;5093674;28;20233;-69
2022/02/05 07:34:22;;;;;;;4.13;3.10;;;5.00;71.10;;;;;;5088419;28;20204;-69
2022/02/05 07:36:53;;;;;;;3.17;2.70;;;5.10;71.80;;;;;;5091527;28;20193;-68
2022/02/05 07:39:20;;;;;;;4.57;2.80;;;5.50;72.90;;;;;;5091327;28;20687;-71
2022/02/05 07:41:47;;;;;;;5.50;2.53;;;6.00;72.50;;;;;;5091298;28;20193;-70
2022/02/05 07:44:16;;;;;;;4.32;2.60;;;6.40;71.70;;;;;;5087403;28;20237;-68
2022/02/05 07:46:47;;;;;;;3.70;2.70;;;6.90;71.10;;;;;;5091803;28;20620;-68
2022/02/05 07:49:15;;;;;;;3.58;2.42;;;7.50;69.60;;;;;;5090570;28;20196;-68
2022/02/05 07:51:43;;;;;;;4.70;2.63;;;8.00;66.70;;;;;;5087237;28;20201;-67
2022/02/05 07:54:13;;;;;;;4.03;2.83;;;8.30;64.20;;;;;;5091512;28;20201;-69
2022/02/05 07:56:42;;;;;;;3.85;3.08;;;8.10;62.80;;;;;;5091388;28;20659;-67
2022/02/05 07:59:09;;;;;;;5.45;3.38;;;8.50;64.10;;;;;;5090500;28;20209;-68
2022/02/05 08:01:36;;;;;;;5.75;3.20;;;8.90;62.30;;;;;;5091425;28;20189;-68
2022/02/05 08:04:04;;;;;;;3.92;2.65;;;9.00;59.70;;;;;;5090146;28;20279;-68
2022/02/05 08:06:32;;;;;;;3.45;3.00;;;9.30;59.00;;;;;;5091047;28;20280;-70
2022/02/05 08:09:03;;;;;;;4.95;2.70;;;9.80;57.70;;;;;;5088535;28;20271;-68
2022/02/05 08:11:38;;;;;;;3.90;3.42;;;10.40;54.50;;;;;;5091179;28;20197;-67
2022/02/05 08:14:08;;;;;;;6.22;4.57;;;10.90;54.30;;;;;;5090300;28;20206;-68
2022/02/05 08:16:50;;;;;;;5.38;3.40;;;11.40;53.70;;;;;;5087937;28;20197;-69
2022/02/05 08:19:18;;;;;;;2.90;2.38;;;11.90;53.10;;;;;;5089071;28;20520;-68
2022/02/05 08:21:45;;;;;;;3.50;2.60;;;12.50;50.50;;;;;;5090723;28;20196;-68
2022/02/05 08:24:12;;;;;;;3.70;3.03;;;12.90;48.50;;;;;;5090751;28;20201;-68
2022/02/05 08:26:40;;;;;;;3.40;2.33;;;13.40;49.10;;;;;;5091316;28;20193;-67
2022/02/05 08:29:09;;;;;;;3.60;2.45;;;13.80;47.20;;;;;;5090660;28;20192;-67
2022/02/05 08:31:36;;;;;;;3.22;2.28;;;14.30;46.50;;;;;;5090939;28;20545;-68
2022/02/05 08:34:04;;;;;;;2.95;2.10;;;14.60;45.00;;;;;;5091272;28;20193;-68
2022/02/05 08:36:44;;;;;;;2.80;2.00;;;15.10;41.90;;;;;;5090975;28;20197;-68
2022/02/05 08:39:12;;;;;;;3.33;2.37;;;15.50;42.10;;;;;;5091460;28;21018;-67
2022/02/05 08:41:41;;;;;;;7.80;3.20;;;15.90;41.40;;;;;;5091422;28;20443;-69
2022/02/05 08:44:08;;;;;;;5.00;4.10;;;16.30;40.70;;;;;;5089564;28;20443;-68
2022/02/05 08:46:36;;;;;;;6.57;4.03;;;16.70;39.00;;;;;;5091027;28;20439;-67
2022/02/05 08:49:03;;;;;;;7.07;5.60;;;17.10;38.10;;;;;;5090111;28;20516;-68
2022/02/05 08:51:30;;;;;;;3.80;2.70;;;17.60;36.30;;;;;;5090711;28;20518;-69
2022/02/05 08:53:58;;;;;;;3.20;2.33;;;17.80;35.40;;;;;;5088229;28;20898;-65
2022/02/05 08:56:26;;;;;;;4.07;2.60;;;18.20;34.50;;;;;;5088372;28;20446;-66
2022/02/05 08:58:56;;;;;;;2.77;2.20;;;18.60;33.30;;;;;;5088043;28;20486;-66
2022/02/05 09:01:28;;;;;;;2.60;1.43;;;19.00;32.50;;;;;;5089611;28;20443;-66
2022/02/05 09:04:04;;;;;;;2.43;1.40;;;19.20;31.00;;;;;;5090578;28;20434;-66
2022/02/05 09:06:36;;;;;;;3.63;1.57;;;19.60;30.00;;;;;;5090139;28;20917;-66
2022/02/05 09:09:21;;;;;;;2.73;1.60;;;20.10;29.60;;;;;;5086192;28;20485;-66
2022/02/05 09:11:54;;;;;;;1.73;0.97;;;20.40;28.70;;;;;;5089641;28;20508;-66
2022/02/05 09:14:32;;;;;;;2.40;1.53;;;20.80;27.60;;;;;;5089672;28;20442;-66
2022/02/05 09:17:00;;;;;;;3.53;1.60;;;21.00;26.80;;;;;;5089207;28;20525;-69
2022/02/05 09:19:28;;;;;;;5.10;1.40;;;21.40;26.50;;;;;;5080974;28;20541;-69
2022/02/05 09:21:56;;;;;;;8.43;2.30;;;21.80;26.40;;;;;;5088398;28;20929;-69
2022/02/05 09:24:24;;;;;;;3.57;2.00;;;22.20;25.50;;;;;;5088144;28;20431;-70
2022/02/05 09:26:58;;;;;;;3.63;1.80;;;22.40;25.10;;;;;;5087946;28;20446;-68
2022/02/05 09:29:30;;;;;;;2.80;1.30;;;22.60;25.40;;;;;;5089667;28;20498;-66
2022/02/05 09:31:57;;;;;;;3.10;1.73;;;23.00;24.80;;;;;;5089161;28;20978;-68
2022/02/05 09:34:25;;;;;;;2.63;1.50;;;23.40;24.30;;;;;;5089299;28;20434;-67
2022/02/05 09:36:53;;;;;;;23.20;21.00;;;23.60;24.10;;;;;;5091755;28;20439;-66
2022/02/05 09:39:20;;;;;;;17.87;16.00;;;23.90;23.50;;;;;;5091686;28;20470;-66
2022/02/05 09:41:47;;;;;;;3.73;3.23;;;24.00;22.90;;;;;;5092501;28;20446;-66
2022/02/05 09:44:14;;;;;;;26.97;24.67;;;24.10;22.70;;;;;;5089222;28;20439;-68
2022/02/05 09:46:43;;;;;;;6.17;5.67;;;23.50;23.00;;;;;;5092077;28;20439;-67
2022/02/05 09:49:11;;;;;;;2.90;1.30;;;23.60;23.40;;;;;;5091990;28;20474;-65
2022/02/05 09:51:46;;;;;;;2.77;1.37;;;24.10;22.70;;;;;;5092217;28;20967;-67
2022/02/05 09:54:13;;;;;;;12.10;10.97;;;24.50;21.70;;;;;;5089507;28;20839;-66
2022/02/05 09:56:40;;;;;;;25.10;22.90;;;25.40;22.00;;;;;;5092861;28;20441;-67
2022/02/05 09:59:08;;;;;;;6.50;5.83;;;26.40;21.50;;;;;;5092817;28;20478;-69
2022/02/05 10:01:37;;;;;;;2.87;1.50;;;27.40;20.60;;;;;;5092400;28;20442;-66
2022/02/05 10:04:10;;;;;;;3.33;1.20;;;28.10;19.00;;;;;;5093293;28;20442;-66
2022/02/05 10:06:40;;;;;;;3.40;2.00;;;28.80;18.70;;;;;;5092362;28;20561;-67
2022/02/05 10:09:09;;;;;;;2.47;1.37;;;29.60;17.70;;;;;;5092759;28;20442;-65
2022/02/05 10:11:51;;;;;;;2.67;1.60;;;29.70;17.10;;;;;;5093595;28;21070;-66
2022/02/05 10:14:22;;;;;;;2.17;1.03;;;30.30;16.70;;;;;;5088463;28;20783;-67
2022/02/05 10:16:55;;;;;;;2.40;1.30;;;30.60;16.00;;;;;;5090180;28;20439;-69
2022/02/05 10:19:25;;;;;;;5.37;1.27;;;31.10;16.20;;;;;;5091924;28;20478;-69
2022/02/05 10:22:07;;;;;;;3.80;1.30;;;31.80;15.70;;;;;;5093230;28;20821;-68
2022/02/05 10:24:35;;;;;;;4.20;1.40;;;32.60;15.00;;;;;;5092600;28;20492;-67
2022/02/05 10:27:02;;;;;;;2.20;1.20;;;33.00;14.50;;;;;;5091947;28;20485;-67
2022/02/05 10:29:31;;;;;;;2.77;1.00;;;33.40;14.40;;;;;;5092827;28;20830;-67
2022/02/05 10:32:06;;;;;;;50.53;46.30;;;33.70;13.40;;;;;;5091858;28;20466;-71
2022/02/05 10:34:53;;;;;;;29.97;27.50;;;34.00;13.50;;;;;;5091121;28;20431;-67
2022/02/05 10:37:24;;;;;;;12.00;11.10;;;34.40;13.00;;;;;;5089552;28;20467;-66
2022/02/05 10:40:07;;;;;;;5.30;4.80;;;34.80;13.00;;;;;;5093514;28;20483;-67
2022/02/05 10:45:39;;;;;;;2.10;1.23;;;35.70;12.20;;;;;;5026197;28;20453;-67
2022/02/05 10:48:06;;;;;;;2.57;1.27;;;36.10;11.80;;;;;;5080513;28;20485;-68
2022/02/05 10:50:35;;;;;;;2.97;1.50;;;36.30;11.20;;;;;;5088515;28;20431;-67
2022/02/05 10:53:05;;;;;;;2.67;1.50;;;36.50;11.10;;;;;;5090157;28;20447;-68
2022/02/05 10:55:47;;;;;;;3.20;1.33;;;36.80;10.70;;;;;;5092230;28;20929;-67
2022/02/05 10:58:28;;;;;;;2.20;1.40;;;37.10;10.70;;;;;;5092434;28;20433;-67
2022/02/05 11:06:40;;;;;;;7.20;6.53;;;37.00;9.30;;;;;;5029512;28;20519;-67
2022/02/05 11:09:07;;;;;;;5.20;2.80;;;37.40;9.50;;;;;;5065067;28;20447;-67
2022/02/05 11:19:52;;;;;;;3.60;1.53;;;38.60;9.10;;;;;;5091230;28;20461;-68
2022/02/05 11:22:22;;;;;;;2.70;1.20;;;38.80;8.60;;;;;;5091688;28;20583;-67
2022/02/05 11:24:51;;;;;;;4.07;1.67;;;38.60;8.20;;;;;;5090761;28;20439;-68
2022/02/05 11:27:18;;;;;;;2.77;1.23;;;38.70;8.40;;;;;;5090950;28;20443;-68
2022/02/05 11:29:45;;;;;;;4.60;2.00;;;38.60;8.20;;;;;;5089365;28;20556;-67
2022/02/05 11:32:24;;;;;;;2.00;1.40;;;38.70;8.30;;;;;;5091956;28;20492;-67
2022/02/05 11:35:09;;;;;;;3.20;1.77;;;39.00;8.30;;;;;;5090373;28;20804;-68
2022/02/05 11:37:58;;;;;;;2.20;1.23;;;39.30;8.40;;;;;;5090464;28;20801;-67
2022/02/05 11:40:55;;;;;;;2.90;1.77;;;39.70;8.00;;;;;;5091595;28;20431;-67
2022/02/05 11:43:25;;;;;;;2.30;1.07;;;39.90;7.80;;;;;;5090617;28;20793;-70
2022/02/05 11:46:10;;;;;;;4.40;1.20;;;40.00;7.70;;;;;;5089711;28;20508;-67
2022/02/05 11:48:42;;;;;;;3.03;1.17;;;40.10;7.40;;;;;;5090965;28;20435;-67
2022/02/05 11:51:14;;;;;;;2.50;1.50;;;40.20;7.60;;;;;;5087560;28;20547;-68
2022/02/05 11:54:15;;;;;;;2.30;1.07;;;40.30;7.40;;;;;;5089980;28;20459;-68
2022/02/05 11:56:55;;;;;;;2.30;1.27;;;40.40;7.60;;;;;;5090519;28;20435;-67
2022/02/05 11:59:25;;;;;;;2.20;0.87;;;40.40;7.10;;;;;;5088501;28;20529;-69
2022/02/05 12:02:11;;;;;;;3.93;1.20;;;40.30;6.90;;;;;;5091579;28;20420;-67
2022/02/05 12:04:38;;;;;;;2.40;1.30;;;40.30;7.20;;;;;;5088472;28;20439;-67
2022/02/05 12:07:07;;;;;;;3.70;1.50;;;40.40;6.80;;;;;;5090553;28;20427;-67
2022/02/05 12:09:38;;;;;;;4.10;1.70;;;40.30;6.90;;;;;;5090536;28;20463;-67
2022/02/05 12:12:45;;;;;;;5.00;4.53;;;40.20;7.20;;;;;;5088014;28;20549;-67
2022/02/05 12:15:25;;;;;;;7.93;7.30;;;40.30;6.70;;;;;;5089783;28;20437;-67
2022/02/05 12:18:22;;;;;;;3.03;2.30;;;40.20;6.80;;;;;;5091333;28;20526;-67
2022/02/05 12:21:26;;;;;;;4.27;1.90;;;40.20;6.70;;;;;;5088288;28;20450;-67
2022/02/05 12:24:33;;;;;;;2.67;1.03;;;40.10;6.30;;;;;;5090924;28;20518;-71
2022/02/05 12:27:03;;;;;;;1.80;0.97;;;39.90;6.30;;;;;;5087298;28;20443;-67
2022/02/05 12:29:33;;;;;;;2.30;1.20;;;39.80;6.10;;;;;;5089186;28;20439;-68
2022/02/05 12:32:01;;;;;;;2.50;1.30;;;39.70;6.50;;;;;;5090028;28;20848;-68
2022/02/05 12:34:42;;;;;;;2.43;1.30;;;39.80;6.50;;;;;;5090982;28;20439;-68
2022/02/05 12:37:09;;;;;;;2.30;1.00;;;39.60;6.50;;;;;;5090078;28;20857;-69
2022/02/05 12:39:37;;;;;;;3.27;1.43;;;39.60;6.70;;;;;;5086647;28;20442;-68
2022/02/05 12:42:13;;;;;;;3.10;1.50;;;39.50;6.80;;;;;;5090530;28;21444;-67
2022/02/05 12:44:41;;;;;;;2.53;1.17;;;39.40;6.50;;;;;;5090718;28;20474;-68
2022/02/05 12:47:13;;;;;;;2.80;1.27;;;39.10;7.10;;;;;;5087135;28;20439;-67
2022/02/05 12:49:49;;;;;;;2.63;1.20;;;38.80;6.50;;;;;;5091085;28;20474;-67
2022/02/05 12:52:22;;;;;;;2.63;1.20;;;38.70;6.20;;;;;;5090041;28;20933;-67
2022/02/05 12:54:55;;;;;;;2.33;1.00;;;38.30;6.10;;;;;;5091299;28;20443;-67
2022/02/05 12:57:25;;;;;;;2.40;0.90;;;38.00;6.00;;;;;;5090854;28;20771;-69
2022/02/05 12:59:52;;;;;;;5.17;0.90;;;37.70;6.30;;;;;;5091108;28;20435;-67
2022/02/05 13:02:21;;;;;;;2.90;1.57;;;37.50;6.70;;;;;;5091307;28;20443;-67
2022/02/05 13:04:50;;;;;;;1.97;0.77;;;37.40;6.80;;;;;;5088608;28;20531;-67
2022/02/05 13:07:21;;;;;;;2.47;1.30;;;37.00;6.40;;;;;;5090062;28;20431;-67
2022/02/05 13:09:50;;;;;;;2.60;1.00;;;36.70;6.70;;;;;;5091271;28;20482;-67
2022/02/05 13:12:20;;;;;;;3.20;1.20;;;36.40;6.90;;;;;;5094147;28;20978;-67
2022/02/05 13:14:53;;;;;;;2.80;1.50;;;36.10;6.90;;;;;;5092106;28;20545;-67
2022/02/05 13:17:28;;;;;;;5.37;4.87;;;35.80;7.20;;;;;;5094814;28;20442;-67
2022/02/05 13:20:18;;;;;;;32.47;29.47;;;35.50;6.90;;;;;;5093896;28;20923;-68
2022/02/05 13:25:50;;;;;;;5.30;4.67;;;34.70;7.20;;;;;;5092161;28;20430;-67
2022/02/05 13:28:39;;;;;;;2.77;1.60;;;34.20;7.50;;;;;;5094656;28;21328;-67
2022/02/05 13:34:19;;;;;;;2.80;0.80;;;32.80;7.60;;;;;;5093920;28;20970;-68
2022/02/05 13:36:54;;;;;;;2.33;0.93;;;32.10;7.80;;;;;;5093126;28;20510;-67
2022/02/05 13:39:37;;;;;;;2.37;0.90;;;31.40;8.30;;;;;;5093730;28;20919;-67
2022/02/05 13:42:11;;;;;;;2.10;0.80;;;30.70;8.40;;;;;;5093276;28;20443;-67
2022/02/05 13:47:36;;;;;;;4.70;1.70;;;28.20;9.90;;;;;;5092676;28;20441;-67
2022/02/05 13:50:08;;;;;;;2.30;0.90;;;26.80;10.60;;;;;;5089114;28;20512;-66
2022/02/05 13:52:38;;;;;;;3.00;1.33;;;25.70;11.70;;;;;;5094634;28;20483;-66
2022/02/05 13:55:24;;;;;;;2.33;1.00;;;24.80;12.50;;;;;;5093327;28;20793;-66
2022/02/05 13:57:59;;;;;;;2.37;0.97;;;23.80;12.60;;;;;;5094507;28;20473;-66
2022/02/05 14:00:41;;;;;;;5.10;1.00;;;23.00;13.30;;;;;;5089781;28;20521;-67
2022/02/05 14:03:10;;;;;;;5.90;1.40;;;22.00;14.20;;;;;;5093482;28;20447;-69
2022/02/05 14:05:37;;;;;;;2.63;1.30;;;21.30;15.40;;;;;;5087893;28;20427;-66
2022/02/05 14:08:05;;;;;;;2.23;0.93;;;20.50;15.40;;;;;;5092949;28;20443;-66
2022/02/05 14:10:34;;;;;;;2.37;0.80;;;19.80;15.70;;;;;;5092544;28;20481;-66
2022/02/05 14:13:01;;;;;;;2.77;0.90;;;19.20;16.50;;;;;;5093237;28;20439;-69
2022/02/05 14:15:31;;;;;;;2.90;0.90;;;18.60;16.90;;;;;;5088185;28;20435;-66
2022/02/05 14:18:07;;;;;;;2.70;0.90;;;18.20;17.20;;;;;;5093772;28;20874;-66
2022/02/05 14:20:48;;;;;;;2.30;1.03;;;17.80;17.30;;;;;;5091889;28;20430;-66
2022/02/05 14:23:17;;;;;;;4.67;3.27;;;17.40;17.70;;;;;;5092441;28;20474;-66
2022/02/05 14:25:58;;;;;;;8.57;5.53;;;17.10;18.20;;;;;;5092786;28;20434;-66
2022/02/05 14:28:34;;;;;;;28.83;26.03;;;16.80;18.30;;;;;;5093165;28;20796;-66
2022/02/05 14:31:08;;;;;;;4.17;3.43;;;16.50;18.80;;;;;;5092840;28;20529;-66
2022/02/05 14:36:41;;;;;;;3.07;1.30;;;16.00;19.20;;;;;;5085827;28;20423;-66
2022/02/05 14:41:55;;;;;;;2.87;0.80;;;15.50;19.50;;;;;;5092909;28;20549;-70
2022/02/05 14:44:23;;;;;;;2.40;0.87;;;15.20;19.40;;;;;;5092795;28;20933;-68
2022/02/05 14:46:51;;;;;;;2.33;0.87;;;14.90;19.50;;;;;;5092931;28;20522;-68
2022/02/05 14:49:18;;;;;;;3.13;1.00;;;14.70;19.70;;;;;;5092682;28;20550;-69
2022/02/05 14:51:47;;;;;;;2.47;0.90;;;14.40;20.10;;;;;;5092845;28;20483;-68
2022/02/05 14:54:14;;;;;;;2.80;1.40;;;14.10;20.20;;;;;;5091758;28;20446;-69
2022/02/05 14:56:42;;;;;;;3.70;1.20;;;13.80;20.20;;;;;;5093017;28;20453;-68
2022/02/05 14:59:09;;;;;;;2.20;0.80;;;13.60;20.50;;;;;;5091811;28;20525;-69
2022/02/05 15:01:37;;;;;;;1.80;0.80;;;13.30;20.80;;;;;;5092876;28;20514;-69
2022/02/05 15:04:11;;;;;;;5.25;1.45;;;13.10;21.00;;;;;;5087896;28;20453;-70
2022/02/05 15:06:38;;;;;;;2.07;1.20;;;12.90;21.30;;;;;;5089579;28;20216;-75
2022/02/05 15:09:07;;;;;;;5.53;5.03;;;12.70;21.60;;;;;;5091142;28;20529;-68
2022/02/05 15:11:35;;;;;;;10.43;9.48;;;12.60;21.80;;;;;;5090476;28;20435;-69